Terminal Aerodrome Forecast
Issued by NWS

Home | Current Version | Previous Version | Text Only | Print | Product List | Glossary Off
Versions: 1 2 3 4 5 6 7 8 9 10 11 12 13 14 15 16

000
FTUS45 KGGW 140520
TAFSDY
TAF
KSDY 140520Z 1406/1506 30012KT P6SM OVC100
     FM140700 31015G23KT P6SM OVC070
     FM140900 32015G23KT P6SM OVC029
     FM141800 32013KT P6SM BKN035
     FM150000 28007KT P6SM SCT040=

USA.gov is the U.S. government's official web portal to all federal, state and local government web resources and services.